Time;durP1;ratioP1;P1;durP2;ratioP2;P2;SDS_P1;SDS_P2;PMS_P1;PMS_P2;Temp;Humidity;BMP_temperature;BMP_pressure;BME280_temperature;BME280_humidity;BME280_pressure;Samples;Min_cycle;Max_cycle;Signal;HPM_P1;HPM_P2
2023/03/04 00:01:51;;;;;;;7.72;3.67;;;;;;;0.96;75.36;147565.03;5129797;28;20028;-64
2023/03/04 00:04:17;;;;;;;5.80;2.97;;;;;;;0.91;75.11;147552.28;5140156;28;20031;-65
2023/03/04 00:06:43;;;;;;;5.70;3.20;;;;;;;0.95;75.54;147563.72;5143683;28;20019;-65
2023/03/04 00:09:08;;;;;;;8.90;3.05;;;;;;;0.95;75.88;147562.47;5143372;28;20026;-66
2023/03/04 00:11:34;;;;;;;7.30;3.42;;;;;;;0.78;76.20;147521.72;5143094;28;20016;-65
2023/03/04 00:14:00;;;;;;;8.23;3.50;;;;;;;0.81;76.05;147528.09;5146664;27;20034;-66
2023/03/04 00:16:26;;;;;;;5.90;3.40;;;;;;;0.67;76.47;147493.75;5147159;27;20034;-67
2023/03/04 00:18:55;;;;;;;6.82;3.75;;;;;;;0.72;76.83;147505.22;5147773;27;20039;-67
2023/03/04 00:21:21;;;;;;;6.78;3.55;;;;;;;0.66;77.08;147491.22;5139087;27;20031;-67
2023/03/04 00:23:47;;;;;;;6.30;3.65;;;;;;;0.58;76.97;147470.88;5138109;27;20054;-65
2023/03/04 00:26:13;;;;;;;6.28;3.58;;;;;;;0.70;76.96;147501.41;5131354;27;20039;-65
2023/03/04 00:28:39;;;;;;;7.85;3.88;;;;;;;0.67;77.42;147493.75;5127801;27;20100;-66
2023/03/04 00:31:05;;;;;;;7.53;3.63;;;;;;;0.43;77.24;147435.25;5146033;27;20050;-66
2023/03/04 00:33:31;;;;;;;8.13;4.00;;;;;;;0.52;77.78;147456.88;5147150;27;20056;-65
2023/03/04 00:35:56;;;;;;;8.43;3.83;;;;;;;0.57;77.83;147469.63;5146889;27;20027;-66
2023/03/04 00:38:22;;;;;;;6.13;3.70;;;;;;;0.57;78.05;147468.31;5131536;27;20080;-65
2023/03/04 00:40:47;;;;;;;6.45;3.83;;;;;;;0.57;78.17;147468.31;5145680;27;20023;-64
2023/03/04 00:43:13;;;;;;;8.27;4.05;;;;;;;0.47;77.57;147445.44;5147002;27;20023;-65
2023/03/04 00:45:38;;;;;;;6.50;4.20;;;;;;;0.51;77.98;147455.63;5146959;27;20023;-64
2023/03/04 00:48:04;;;;;;;5.60;4.32;;;;;;;0.46;78.01;147442.88;5147372;27;20027;-65
2023/03/04 00:50:30;;;;;;;7.97;4.18;;;;;;;0.43;77.74;147435.25;5146971;27;20047;-65
2023/03/04 00:52:55;;;;;;;6.90;4.35;;;;;;;0.47;77.70;147444.13;5128399;27;20019;-65
2023/03/04 00:55:21;;;;;;;8.57;4.13;;;;;;;0.40;78.64;147426.34;5141023;27;20015;-66
2023/03/04 00:57:46;;;;;;;8.68;4.45;;;;;;;0.45;78.52;147440.31;5135895;27;20331;-65
2023/03/04 01:00:13;;;;;;;5.32;3.58;;;;;;;0.35;77.82;147414.91;5146710;27;20027;-63
2023/03/04 01:02:39;;;;;;;13.23;4.60;;;;;;;0.32;78.83;147407.28;5146762;27;20038;-65
2023/03/04 01:05:05;;;;;;;5.70;4.03;;;;;;;0.39;78.79;147423.81;5146299;27;20019;-65
2023/03/04 01:07:31;;;;;;;8.57;4.18;;;;;;;0.30;79.22;147403.47;5128496;27;20207;-64
2023/03/04 01:09:56;;;;;;;9.35;4.63;;;;;;;0.29;78.76;147399.66;5146923;27;20023;-65
2023/03/04 01:12:22;;;;;;;4.70;3.88;;;;;;;0.34;79.21;147412.34;5146184;27;20023;-64
2023/03/04 01:14:48;;;;;;;9.70;4.28;;;;;;;0.30;79.43;147403.47;5146129;27;20042;-65
2023/03/04 01:17:13;;;;;;;5.57;3.65;;;;;;;0.20;79.37;147376.75;5142784;27;20042;-65
2023/03/04 01:19:39;;;;;;;6.00;3.78;;;;;;;0.13;80.21;147361.50;5133873;27;20023;-65
2023/03/04 01:22:04;;;;;;;6.45;3.97;;;;;;;0.32;79.68;147408.53;5146059;27;20023;-65
2023/03/04 01:24:30;;;;;;;7.18;3.92;;;;;;;0.35;79.09;147414.91;5145448;27;20556;-65
2023/03/04 01:26:55;;;;;;;8.82;4.20;;;;;;;0.31;79.42;147406.03;5146372;27;20223;-65
2023/03/04 01:29:21;;;;;;;7.50;4.60;;;;;;;0.42;79.46;147432.69;5146351;27;20334;-64
2023/03/04 01:31:47;;;;;;;5.38;3.83;;;;;;;0.36;79.27;147417.47;5145841;27;20042;-64
2023/03/04 01:34:13;;;;;;;6.55;4.18;;;;;;;0.35;79.98;147414.91;5145955;27;20019;-65
2023/03/04 01:36:38;;;;;;;6.55;4.15;;;;;;;0.25;79.72;147390.72;5146607;27;20257;-65
2023/03/04 01:39:04;;;;;;;6.32;3.95;;;;;;;0.24;80.28;147386.91;5145991;27;20030;-65
2023/03/04 01:41:30;;;;;;;7.25;4.65;;;;;;;0.35;79.90;147414.91;5145478;27;20211;-63
2023/03/04 01:43:59;;;;;;;7.60;4.50;;;;;;;0.41;79.70;147428.88;5127877;27;20068;-64
2023/03/04 01:46:25;;;;;;;9.73;5.32;;;;;;;0.21;80.12;147380.56;5133670;27;20031;-64
2023/03/04 01:48:51;;;;;;;6.10;4.57;;;;;;;0.19;80.18;147374.22;5141741;27;20023;-64
2023/03/04 01:51:18;;;;;;;6.63;4.38;;;;;;;0.15;80.18;147366.56;5142401;27;20193;-65
2023/03/04 01:53:46;;;;;;;7.15;4.88;;;;;;;0.15;80.33;147366.56;5131316;27;20026;-63
2023/03/04 01:56:15;;;;;;;7.32;5.05;;;;;;;0.06;80.55;147343.69;5146064;27;20023;-64
2023/03/04 01:58:41;;;;;;;8.18;4.80;;;;;;;0.03;81.23;147336.06;5146025;27;20031;-64
2023/03/04 02:01:12;;;;;;;6.10;4.72;;;;;;;0.07;80.54;147344.97;5144566;27;20071;-65
2023/03/04 02:03:38;;;;;;;8.02;5.38;;;;;;;0.07;80.34;147344.97;5145879;27;20031;-65
2023/03/04 02:06:04;;;;;;;6.78;5.00;;;;;;;0.00;80.75;147328.47;5145962;27;20295;-65
2023/03/04 02:08:29;;;;;;;6.63;4.30;;;;;;;0.05;81.11;147341.16;5145734;27;20035;-65
2023/03/04 02:10:55;;;;;;;6.47;4.97;;;;;;;0.16;81.20;147367.88;5145202;27;20124;-64
2023/03/04 02:13:21;;;;;;;6.00;4.55;;;;;;;0.20;81.32;147376.75;5125152;27;20300;-64
2023/03/04 02:15:47;;;;;;;6.97;4.80;;;;;;;0.23;80.57;147384.38;5130489;27;20038;-65
2023/03/04 02:18:19;;;;;;;6.10;4.90;;;;;;;0.15;80.80;147366.56;5127039;27;20023;-65
2023/03/04 02:20:53;;;;;;;9.32;5.70;;;;;;;0.20;80.72;147376.75;5145107;27;20041;-64
2023/03/04 02:23:25;;;;;;;8.73;5.45;;;;;;;0.16;80.79;147369.13;5144412;27;20027;-66
2023/03/04 02:26:17;;;;;;;8.75;5.50;;;;;;;0.11;81.03;147355.13;5145403;27;20362;-65
2023/03/04 02:28:43;;;;;;;;;;;;;;;0.07;81.37;147346.25;5145924;27;20091;-66
2023/03/04 02:31:22;;;;;;;7.00;5.75;;;;;;;0.01;80.55;147330.97;5144128;27;20104;-65
2023/03/04 02:33:50;;;;;;;8.77;6.45;;;;;;;0.12;80.85;147357.69;5129206;27;20089;-64
2023/03/04 02:36:15;;;;;;;8.00;5.85;;;;;;;-0.02;80.71;147324.59;5145042;27;20098;-65
2023/03/04 02:38:41;;;;;;;10.55;6.35;;;;;;;0.07;81.06;147346.25;5145028;27;20404;-65
2023/03/04 02:41:12;;;;;;;11.27;6.50;;;;;;;-0.06;81.18;147313.16;5144204;27;20242;-66
2023/03/04 02:43:38;;;;;;;6.60;5.50;;;;;;;-0.02;81.78;147324.59;5144468;27;20098;-66
2023/03/04 02:46:04;;;;;;;8.23;6.05;;;;;;;0.06;80.97;147343.69;5144970;27;20023;-66
2023/03/04 02:48:30;;;;;;;8.93;6.00;;;;;;;0.09;80.79;147351.31;5144469;27;20038;-65
2023/03/04 02:50:56;;;;;;;8.60;6.03;;;;;;;0.15;80.35;147366.56;5144581;27;20038;-66
2023/03/04 02:53:21;;;;;;;9.00;6.07;;;;;;;0.13;81.10;147360.25;5144483;27;20086;-67
2023/03/04 02:55:48;;;;;;;11.55;7.30;;;;;;;0.01;80.79;147330.97;5144636;27;20061;-66
2023/03/04 02:58:13;;;;;;;11.98;7.35;;;;;;;-0.05;81.36;147315.72;5144133;27;20338;-66
2023/03/04 03:00:40;;;;;;;11.55;8.20;;;;;;;-0.14;81.90;147292.81;5144405;27;20023;-64
2023/03/04 03:03:06;;;;;;;12.02;8.10;;;;;;;-0.09;81.24;147305.56;5144010;27;20295;-66
2023/03/04 03:05:33;;;;;;;8.38;7.32;;;;;;;-0.19;81.57;147282.66;5144529;27;20049;-65
2023/03/04 03:07:59;;;;;;;9.73;7.90;;;;;;;-0.14;82.42;147294.13;5144341;27;20178;-64
2023/03/04 03:10:25;;;;;;;10.60;8.40;;;;;;;-0.29;81.48;147255.97;5144257;27;20326;-65
2023/03/04 03:12:50;;;;;;;10.10;7.85;;;;;;;-0.29;81.70;147255.97;5144226;27;20119;-65
2023/03/04 03:15:16;;;;;;;10.00;8.10;;;;;;;-0.56;82.87;147191.13;5144522;27;20026;-66
2023/03/04 03:17:42;;;;;;;12.07;8.75;;;;;;;-0.46;83.31;147214.03;5143988;27;20050;-66
2023/03/04 03:20:09;;;;;;;10.90;8.32;;;;;;;-0.29;82.80;147257.25;5144160;27;20031;-64
2023/03/04 03:22:35;;;;;;;11.25;8.85;;;;;;;-0.25;82.51;147267.41;5135414;27;20027;-64
2023/03/04 03:25:00;;;;;;;12.02;8.48;;;;;;;-0.23;81.91;147272.53;5136026;27;20050;-64
2023/03/04 03:27:26;;;;;;;10.40;8.05;;;;;;;-0.14;82.36;147292.81;5143798;27;20043;-65
2023/03/04 03:29:51;;;;;;;9.98;8.13;;;;;;;-0.11;81.99;147301.75;5143686;27;20034;-65
2023/03/04 03:32:17;;;;;;;10.23;8.30;;;;;;;-0.14;81.76;147294.13;5143175;27;20147;-64
2023/03/04 03:34:42;;;;;;;10.93;8.98;;;;;;;-0.22;82.28;147275.03;5144276;27;20027;-64
2023/03/04 03:37:08;;;;;;;11.80;8.15;;;;;;;-0.17;82.48;147286.50;5143772;27;20023;-65
2023/03/04 03:39:34;;;;;;;12.40;9.75;;;;;;;-0.36;82.47;147239.44;5143806;27;20050;-65
2023/03/04 03:41:59;;;;;;;13.00;9.85;;;;;;;-0.34;83.07;147244.56;5143088;27;20023;-64
2023/03/04 03:44:25;;;;;;;11.45;9.30;;;;;;;-0.43;83.01;147221.66;5143898;27;20027;-64
2023/03/04 03:46:50;;;;;;;15.15;10.80;;;;;;;-0.41;83.42;147228.03;5125744;28;20043;-65
2023/03/04 03:49:16;;;;;;;16.00;11.48;;;;;;;-0.40;83.09;147229.28;5143605;27;20087;-66
2023/03/04 03:51:42;;;;;;;16.33;12.07;;;;;;;-0.38;82.39;147235.63;5143547;27;20030;-65
2023/03/04 03:54:08;;;;;;;16.17;10.45;;;;;;;-0.39;83.03;147231.81;5122676;28;20027;-65
2023/03/04 03:56:34;;;;;;;14.88;10.57;;;;;;;-0.72;83.90;147150.50;5129542;28;20046;-64
2023/03/04 03:58:59;;;;;;;15.52;11.90;;;;;;;-0.50;83.68;147203.88;5133451;28;20023;-64
2023/03/04 04:01:25;;;;;;;14.95;11.65;;;;;;;-0.59;83.45;147182.28;5128688;28;20057;-64
2023/03/04 04:03:51;;;;;;;16.02;11.63;;;;;;;-0.54;83.95;147196.25;5139618;28;20079;-63
2023/03/04 04:06:17;;;;;;;15.27;11.50;;;;;;;-0.43;83.54;147222.97;5107888;28;20020;-64
2023/03/04 04:08:43;;;;;;;16.73;11.85;;;;;;;-0.57;83.73;147187.34;5143565;28;20027;-64
2023/03/04 04:11:10;;;;;;;18.13;11.88;;;;;;;-0.71;83.75;147153.06;5132640;28;20054;-66
2023/03/04 04:13:36;;;;;;;16.85;12.18;;;;;;;-0.75;84.00;147142.91;5137747;28;20307;-66
2023/03/04 04:16:01;;;;;;;19.58;12.02;;;;;;;-0.60;84.04;147179.72;5125279;28;20060;-64
2023/03/04 04:18:27;;;;;;;18.70;11.52;;;;;;;-0.59;84.14;147183.53;5143670;28;20023;-65
2023/03/04 04:20:53;;;;;;;12.50;9.60;;;;;;;-0.70;83.68;147156.88;5143166;28;20035;-65
2023/03/04 04:23:19;;;;;;;10.95;9.00;;;;;;;-0.72;83.77;147151.75;5143218;28;20023;-66
2023/03/04 04:25:44;;;;;;;15.55;10.43;;;;;;;-0.68;83.66;147160.69;5143261;28;20035;-64
2023/03/04 04:28:10;;;;;;;13.10;9.60;;;;;;;-0.80;84.08;147131.44;5143377;28;20107;-64
2023/03/04 04:30:36;;;;;;;16.15;10.30;;;;;;;-0.74;83.55;147145.41;5142892;28;20042;-64
2023/03/04 04:33:03;;;;;;;16.40;10.23;;;;;;;-0.88;83.73;147111.13;5143212;28;20342;-65
2023/03/04 04:35:31;;;;;;;15.10;10.27;;;;;;;-0.78;83.82;147135.28;5143016;28;20030;-65
2023/03/04 04:37:57;;;;;;;17.50;10.38;;;;;;;-0.82;83.86;147126.38;5141293;28;20071;-66
2023/03/04 04:40:22;;;;;;;12.32;8.63;;;;;;;-0.80;83.99;147131.44;5142599;28;20026;-66
2023/03/04 04:42:48;;;;;;;11.13;8.80;;;;;;;-0.70;82.39;147155.56;5142622;28;20031;-64
2023/03/04 04:45:13;;;;;;;14.05;9.07;;;;;;;-0.74;82.22;147146.69;5142723;28;20023;-65
2023/03/04 04:47:39;;;;;;;11.45;8.88;;;;;;;-0.67;82.70;147161.94;5142690;28;20027;-66
2023/03/04 04:50:05;;;;;;;12.38;9.07;;;;;;;-0.57;82.48;147188.63;5149376;27;20063;-65
2023/03/04 04:52:31;;;;;;;12.60;9.38;;;;;;;-0.46;82.13;147214.03;5144481;27;20032;-65
2023/03/04 04:54:57;;;;;;;15.48;9.63;;;;;;;-0.50;81.68;147205.13;5157438;27;20019;-65
2023/03/04 04:57:22;;;;;;;13.38;9.25;;;;;;;-0.53;82.54;147197.50;5116745;28;20023;-65
2023/03/04 04:59:48;;;;;;;14.85;9.57;;;;;;;-0.44;82.58;147219.09;5156519;27;20061;-66
2023/03/04 05:02:14;;;;;;;12.90;8.73;;;;;;;-0.36;82.32;147239.44;5140008;27;20026;-65
2023/03/04 05:04:39;;;;;;;14.50;9.57;;;;;;;-0.28;82.11;147259.78;5149337;27;20090;-65
2023/03/04 05:07:05;;;;;;;13.80;9.40;;;;;;;-0.49;81.89;147206.44;5160398;27;20097;-64
2023/03/04 05:09:31;;;;;;;13.75;10.02;;;;;;;-0.51;82.83;147202.63;5155070;27;20035;-65
2023/03/04 05:11:56;;;;;;;10.80;8.90;;;;;;;-0.37;82.28;147236.88;5134538;27;20055;-65
2023/03/04 05:14:22;;;;;;;10.48;8.23;;;;;;;-0.56;82.31;147189.88;5107525;27;20039;-66
2023/03/04 05:16:47;;;;;;;11.75;8.30;;;;;;;-0.68;82.72;147160.69;5127826;27;20027;-65
2023/03/04 05:19:13;;;;;;;10.15;7.47;;;;;;;-0.61;83.92;147178.47;5145812;27;20027;-65
2023/03/04 05:21:38;;;;;;;12.40;8.23;;;;;;;-0.60;83.67;147181.03;5155442;27;20031;-65
2023/03/04 05:24:04;;;;;;;11.02;8.40;;;;;;;-0.56;83.37;147189.88;5146506;27;20047;-66
2023/03/04 05:26:30;;;;;;;10.30;7.85;;;;;;;-0.50;83.60;147203.88;5135510;27;20058;-64
2023/03/04 05:28:55;;;;;;;11.15;8.00;;;;;;;-0.53;84.22;147198.81;5113558;27;20023;-65
2023/03/04 05:31:21;;;;;;;11.52;8.77;;;;;;;-0.58;84.27;147186.09;5146038;27;20015;-65
2023/03/04 05:33:46;;;;;;;12.93;8.40;;;;;;;-0.63;84.00;147173.34;5154931;27;20038;-64
2023/03/04 05:36:12;;;;;;;11.40;8.38;;;;;;;-0.61;83.79;147178.47;5146972;27;20034;-65
2023/03/04 05:38:38;;;;;;;12.05;8.27;;;;;;;-0.53;84.05;147197.50;5156038;27;20084;-64
2023/03/04 05:41:05;;;;;;;12.02;8.95;;;;;;;-0.67;83.95;147161.94;5146085;27;20349;-65
2023/03/04 05:43:34;;;;;;;10.32;8.07;;;;;;;-0.49;84.09;147207.69;5127111;27;20323;-65
2023/03/04 05:46:00;;;;;;;11.70;8.38;;;;;;;-0.38;83.21;147235.63;5146119;27;20023;-65
2023/03/04 05:48:27;;;;;;;10.13;7.75;;;;;;;-0.53;84.28;147198.81;5129292;27;20027;-64
2023/03/04 05:50:58;;;;;;;11.40;7.32;;;;;;;-0.67;83.07;147163.22;5144089;27;20997;-64
2023/03/04 05:53:24;;;;;;;10.57;7.57;;;;;;;-0.41;84.08;147226.78;5146820;27;20083;-66
2023/03/04 05:55:50;;;;;;;10.25;7.22;;;;;;;-0.22;82.91;147273.78;5149831;27;20307;-65
2023/03/04 05:58:17;;;;;;;10.27;6.75;;;;;;;-0.03;82.35;147320.78;5151188;27;20086;-64
2023/03/04 06:00:42;;;;;;;12.15;6.60;;;;;;;0.01;81.60;147329.72;5145323;27;20171;-65
2023/03/04 06:03:19;;;;;;;12.00;7.70;;;;;;;0.05;81.72;147339.88;5138330;27;20019;-64
2023/03/04 06:05:45;;;;;;;9.60;7.10;;;;;;;0.27;81.28;147395.84;5147380;27;20063;-64
2023/03/04 06:08:11;;;;;;;11.20;7.03;;;;;;;-0.02;81.27;147323.34;5147370;27;20287;-65
2023/03/04 06:10:38;;;;;;;8.52;7.13;;;;;;;0.19;81.24;147375.47;5123292;27;20032;-64
2023/03/04 06:13:05;;;;;;;9.48;7.40;;;;;;;0.42;80.73;147431.44;5143909;27;20034;-65
2023/03/04 06:15:31;;;;;;;10.13;7.30;;;;;;;0.48;79.56;147447.94;5142320;27;20038;-64
2023/03/04 06:17:56;;;;;;;8.48;6.88;;;;;;;0.56;80.00;147467.06;5147418;27;20049;-66
2023/03/04 06:20:22;;;;;;;9.52;6.53;;;;;;;0.42;79.46;147432.69;5153673;27;20026;-65
2023/03/04 06:22:47;;;;;;;9.85;6.43;;;;;;;0.39;79.36;147425.06;5151092;27;20067;-65
2023/03/04 06:25:13;;;;;;;9.00;6.43;;;;;;;0.51;78.96;147454.31;5128865;27;20039;-65
2023/03/04 06:27:38;;;;;;;10.85;6.07;;;;;;;0.38;79.23;147421.25;5144639;27;20030;-64
2023/03/04 06:30:05;;;;;;;8.02;6.10;;;;;;;0.50;79.25;147453.06;5144534;27;20084;-64
2023/03/04 06:32:30;;;;;;;9.10;5.80;;;;;;;0.29;78.87;147400.91;5144139;27;20031;-64
2023/03/04 06:34:56;;;;;;;8.15;6.00;;;;;;;0.42;79.34;147432.69;5143758;27;20023;-64
2023/03/04 06:37:21;;;;;;;10.95;6.35;;;;;;;0.45;78.93;147440.31;5144094;27;20023;-65
2023/03/04 06:39:47;;;;;;;9.18;6.15;;;;;;;0.78;78.78;147520.47;5143750;27;20026;-65
2023/03/04 06:42:13;;;;;;;8.90;6.40;;;;;;;0.71;78.29;147502.66;5143377;27;20046;-65
2023/03/04 06:44:39;;;;;;;7.25;5.72;;;;;;;0.75;77.81;147514.09;5144581;27;20026;-65
2023/03/04 06:47:05;;;;;;;7.38;5.75;;;;;;;0.81;77.75;147529.41;5143779;27;20019;-66
2023/03/04 06:49:30;;;;;;;11.52;5.93;;;;;;;0.85;77.42;147539.53;5144168;27;20068;-65
2023/03/04 06:51:56;;;;;;;8.95;6.20;;;;;;;0.91;77.16;147553.53;5125401;27;20023;-65
2023/03/04 06:54:22;;;;;;;10.73;6.63;;;;;;;1.11;76.67;147603.19;5144063;27;20023;-65
2023/03/04 06:56:47;;;;;;;7.13;5.60;;;;;;;1.13;76.69;147607.00;5143645;27;20027;-65
2023/03/04 06:59:13;;;;;;;7.03;5.68;;;;;;;1.06;76.75;147590.47;5143714;27;20211;-66
2023/03/04 07:01:38;;;;;;;11.02;5.38;;;;;;;1.11;75.94;147601.91;5124529;27;20054;-66
2023/03/04 07:04:04;;;;;;;7.38;5.63;;;;;;;0.99;76.52;147572.66;5143627;27;20085;-66
2023/03/04 07:06:30;;;;;;;8.20;4.88;;;;;;;1.20;76.57;147626.09;5143468;27;20031;-65
2023/03/04 07:08:57;;;;;;;5.95;5.10;;;;;;;1.17;76.11;147618.47;5124292;27;20034;-64
2023/03/04 07:11:23;;;;;;;8.02;5.03;;;;;;;1.15;75.43;147613.34;5142287;27;20094;-64
2023/03/04 07:13:49;;;;;;;8.50;5.30;;;;;;;1.25;75.60;147637.53;5143433;27;20311;-64
2023/03/04 07:16:18;;;;;;;7.55;4.53;;;;;;;0.99;75.16;147572.66;5141182;27;20090;-64
2023/03/04 07:18:44;;;;;;;7.60;4.90;;;;;;;1.14;75.94;147609.53;5143053;27;20188;-65
2023/03/04 07:21:11;;;;;;;8.75;5.15;;;;;;;1.40;75.31;147674.47;5144906;27;20030;-65
2023/03/04 07:23:36;;;;;;;7.18;4.90;;;;;;;1.65;75.39;147735.56;5141611;27;20114;-65
2023/03/04 07:26:03;;;;;;;6.05;4.88;;;;;;;1.58;75.11;147717.72;5124738;27;20256;-65
2023/03/04 07:28:29;;;;;;;7.25;4.50;;;;;;;1.50;74.42;147699.91;5143417;27;20110;-65
2023/03/04 07:30:54;;;;;;;7.28;4.85;;;;;;;1.70;74.31;147748.31;5142250;27;20030;-66
2023/03/04 07:33:20;;;;;;;6.85;4.65;;;;;;;1.77;73.77;147766.13;5143114;27;20132;-65
2023/03/04 07:35:46;;;;;;;5.07;3.97;;;;;;;2.01;74.01;147824.69;5140543;27;20026;-64
2023/03/04 07:38:11;;;;;;;7.50;4.18;;;;;;;1.61;72.88;147726.66;5142716;27;20038;-65
2023/03/04 07:40:37;;;;;;;7.45;4.32;;;;;;;1.60;73.58;147722.84;5141906;27;20041;-65
2023/03/04 07:43:03;;;;;;;7.75;4.60;;;;;;;1.99;72.59;147819.59;5143149;27;20026;-65
2023/03/04 07:45:29;;;;;;;7.63;4.32;;;;;;;2.03;71.61;147831.06;5125082;28;20031;-65
2023/03/04 07:47:57;;;;;;;6.70;4.22;;;;;;;1.63;72.80;147731.75;5142880;27;20086;-65
2023/03/04 07:50:22;;;;;;;6.68;4.03;;;;;;;1.81;72.52;147776.31;5141022;27;20031;-65
2023/03/04 07:52:49;;;;;;;6.70;4.30;;;;;;;1.66;72.34;147738.13;5143214;28;20064;-67
2023/03/04 07:55:16;;;;;;;7.63;4.20;;;;;;;1.16;73.63;147615.91;5124147;28;20078;-67
2023/03/04 07:57:43;;;;;;;6.80;4.05;;;;;;;1.29;74.15;147646.47;5143803;27;20050;-66
2023/03/04 08:00:11;;;;;;;9.00;4.65;;;;;;;1.40;75.64;147673.16;5142825;28;20045;-66
2023/03/04 08:02:37;;;;;;;5.78;4.32;;;;;;;1.20;77.15;147624.84;5143971;27;20026;-66
2023/03/04 08:05:03;;;;;;;6.65;3.85;;;;;;;1.28;76.59;147643.91;5140437;28;20019;-65
2023/03/04 08:07:29;;;;;;;5.50;3.97;;;;;;;1.33;76.91;147656.66;5124026;28;20031;-66
2023/03/04 08:09:54;;;;;;;4.30;3.75;;;;;;;1.33;76.97;147657.91;5139685;28;20241;-65
2023/03/04 08:12:20;;;;;;;8.20;4.30;;;;;;;1.47;76.18;147690.97;5146707;27;20121;-65
2023/03/04 08:14:46;;;;;;;7.50;4.45;;;;;;;1.42;76.37;147679.53;5154112;27;20019;-64
2023/03/04 08:17:13;;;;;;;8.70;4.80;;;;;;;1.59;77.29;147720.28;5149578;27;20027;-65
2023/03/04 08:19:39;;;;;;;7.05;4.72;;;;;;;1.75;76.12;147761.00;5142315;28;20062;-66
2023/03/04 08:22:05;;;;;;;6.85;4.28;;;;;;;1.51;75.58;147702.47;5119747;28;20035;-66
2023/03/04 08:24:31;;;;;;;5.85;4.65;;;;;;;1.60;76.58;147724.09;5144966;27;20118;-65
2023/03/04 08:26:57;;;;;;;6.18;3.88;;;;;;;1.78;74.90;147768.69;5142491;28;20022;-66
2023/03/04 08:29:24;;;;;;;7.50;3.97;;;;;;;1.33;75.71;147656.66;5142511;28;20019;-65
2023/03/04 08:31:51;;;;;;;7.32;4.65;;;;;;;1.19;77.00;147623.53;5141842;28;20086;-65
2023/03/04 08:34:18;;;;;;;5.57;4.25;;;;;;;1.40;76.44;147673.16;5140858;27;20014;-65
2023/03/04 08:36:44;;;;;;;6.63;4.07;;;;;;;1.11;76.97;147601.91;5145352;27;20027;-65
2023/03/04 08:39:14;;;;;;;7.35;4.03;;;;;;;1.26;76.60;147640.09;5145718;27;20207;-65
2023/03/04 08:41:40;;;;;;;7.70;4.57;;;;;;;1.32;77.00;147654.09;5124400;27;20019;-65
2023/03/04 08:44:07;;;;;;;5.32;4.55;;;;;;;1.44;76.36;147684.66;5108177;27;20035;-66
2023/03/04 08:46:33;;;;;;;6.03;4.50;;;;;;;1.39;76.50;147671.91;5143672;27;20039;-67
2023/03/04 08:48:59;;;;;;;5.25;4.50;;;;;;;1.68;76.73;147743.19;5123634;27;20043;-65
2023/03/04 08:51:24;;;;;;;7.75;4.30;;;;;;;1.62;76.34;147727.91;5126601;27;20408;-66
2023/03/04 08:53:50;;;;;;;5.88;4.07;;;;;;;1.43;75.86;147682.09;5144420;27;20026;-66
2023/03/04 08:56:16;;;;;;;4.93;3.90;;;;;;;1.54;75.52;147710.09;5144114;27;20037;-65
2023/03/04 08:58:42;;;;;;;4.90;4.07;;;;;;;1.71;75.59;147750.81;5125114;27;20062;-66
2023/03/04 09:01:10;;;;;;;6.15;4.32;;;;;;;1.50;76.16;147699.91;5144861;27;20319;-66
2023/03/04 09:03:36;;;;;;;7.22;4.43;;;;;;;1.80;75.57;147772.50;5143802;27;20019;-65
2023/03/04 09:06:03;;;;;;;6.82;4.75;;;;;;;1.75;76.60;147759.75;5124859;27;20020;-66
2023/03/04 09:08:28;;;;;;;6.70;5.10;;;;;;;1.67;76.58;147741.94;5142944;27;20034;-65
2023/03/04 09:10:54;;;;;;;9.10;5.43;;;;;;;1.87;76.81;147791.59;5144246;27;20039;-65
2023/03/04 09:13:21;;;;;;;13.90;6.03;;;;;;;2.02;76.99;147828.53;5145447;27;20023;-65
2023/03/04 09:15:48;;;;;;;7.45;5.75;;;;;;;1.97;77.15;147814.53;5144690;27;20031;-65
2023/03/04 09:18:16;;;;;;;6.65;5.20;;;;;;;1.93;76.64;147804.34;5122810;27;20021;-65
2023/03/04 09:20:43;;;;;;;8.10;5.88;;;;;;;2.04;76.79;147832.34;5144237;27;20030;-64
2023/03/04 09:23:09;;;;;;;8.70;5.93;;;;;;;2.26;76.83;147887.09;5143887;27;20216;-65
2023/03/04 09:25:39;;;;;;;7.63;4.80;;;;;;;1.95;75.32;147809.41;5144724;27;20098;-67
2023/03/04 09:28:05;;;;;;;6.70;4.80;;;;;;;2.04;75.33;147833.63;5143660;27;20033;-65
2023/03/04 09:30:31;;;;;;;6.65;4.45;;;;;;;2.11;75.13;147848.88;5143891;27;20092;-64
2023/03/04 09:32:57;;;;;;;7.35;4.97;;;;;;;2.41;75.21;147924.06;5123458;27;20068;-66
2023/03/04 09:35:23;;;;;;;5.80;4.55;;;;;;;2.44;74.97;147930.41;5141662;27;20031;-65
2023/03/04 09:37:49;;;;;;;5.80;4.22;;;;;;;2.55;73.54;147959.75;5125695;27;20052;-66
2023/03/04 09:40:31;;;;;;;6.95;4.70;;;;;;;2.68;74.00;147991.59;5144010;27;20023;-66
2023/03/04 09:43:00;;;;;;;;;;;;;;;2.80;73.31;148019.63;5141594;27;20271;-64
2023/03/04 09:45:44;;;;;;;5.22;4.30;;;;;;;2.42;73.64;147926.59;5143118;27;19908;-65
2023/03/04 09:48:15;;;;;;;7.47;6.03;;;;;;;2.33;73.79;147903.69;5141385;27;20070;-66
2023/03/04 09:50:58;;;;;;;10.82;5.35;;;;;;;2.37;74.46;147915.13;5106368;27;20051;-66
2023/03/04 09:53:46;;;;;;;6.05;4.80;;;;;;;2.56;75.19;147962.25;5143267;27;20042;-66
2023/03/04 09:56:13;;;;;;;8.48;5.30;;;;;;;3.00;74.18;148069.34;5125330;27;20031;-66
2023/03/04 09:59:14;;;;;;;7.25;4.50;;;;;;;3.23;72.60;148127.94;5143318;27;20212;-66
2023/03/04 10:01:52;;;;;;;6.78;4.22;;;;;;;2.95;71.19;148057.88;5138066;27;20038;-65
2023/03/04 10:04:51;;;;;;;4.20;3.65;;;;;;;2.27;70.73;147889.66;5140998;27;20019;-65
2023/03/04 10:07:26;;;;;;;4.10;3.70;;;;;;;2.33;72.15;147903.69;5104159;27;20327;-65
2023/03/04 10:10:24;;;;;;;6.40;4.68;;;;;;;2.32;72.04;147902.38;5123856;27;20076;-65
2023/03/04 10:12:52;;;;;;;5.20;4.22;;;;;;;2.34;72.51;147906.25;5142350;27;20057;-65
2023/03/04 10:15:37;;;;;;;6.13;4.15;;;;;;;2.49;72.00;147944.41;5143568;27;20094;-65
2023/03/04 10:18:20;;;;;;;4.28;3.65;;;;;;;2.04;72.24;147832.34;5141362;27;20050;-64
2023/03/04 10:20:58;;;;;;;6.00;3.78;;;;;;;1.99;72.06;147819.59;5123076;27;20019;-66
2023/03/04 10:23:27;;;;;;;8.88;3.38;;;;;;;1.96;70.97;147813.22;5143515;27;20042;-65
2023/03/04 10:25:53;;;;;;;5.65;3.50;;;;;;;2.04;72.38;147832.34;5143533;27;20054;-67
2023/03/04 10:28:28;;;;;;;5.25;3.47;;;;;;;1.93;71.12;147805.59;5143169;27;20027;-66
2023/03/04 10:31:00;;;;;;;4.32;3.30;;;;;;;1.86;71.80;147789.03;5143641;27;20019;-66
2023/03/04 10:33:33;;;;;;;4.60;3.60;;;;;;;2.00;71.70;147822.16;5139788;27;20056;-66
2023/03/04 10:36:02;;;;;;;4.68;3.13;;;;;;;2.04;70.78;147832.34;5142753;27;20047;-66
2023/03/04 10:38:34;;;;;;;6.40;3.50;;;;;;;1.98;71.01;147817.03;5140520;27;20411;-65
2023/03/04 10:41:00;;;;;;;8.18;3.83;;;;;;;1.98;70.90;147818.34;5142223;27;20038;-66
2023/03/04 10:43:26;;;;;;;3.13;2.63;;;;;;;2.28;70.15;147892.22;5143379;27;20087;-66
2023/03/04 10:46:00;;;;;;;4.78;3.25;;;;;;;2.49;68.62;147943.16;5142493;27;20019;-65
2023/03/04 10:48:30;;;;;;;4.93;3.08;;;;;;;2.23;67.93;147880.72;5103158;27;20068;-65
2023/03/04 10:51:27;;;;;;;5.13;3.28;;;;;;;2.36;68.19;147911.31;5139130;27;20300;-66
2023/03/04 10:54:07;;;;;;;4.05;3.55;;;;;;;2.34;67.26;147907.50;5144017;27;20026;-66
2023/03/04 10:56:37;;;;;;;5.90;3.00;;;;;;;2.36;67.86;147911.31;5142790;27;20492;-65
2023/03/04 10:59:40;;;;;;;4.82;3.55;;;;;;;2.44;67.50;147930.41;5143132;27;20304;-66
2023/03/04 11:02:19;;;;;;;5.30;3.92;;;;;;;2.37;68.80;147913.88;5141540;27;20034;-67
2023/03/04 11:05:03;;;;;;;10.45;6.43;;;;;;;2.48;69.83;147941.91;5140830;27;20472;-65
2023/03/04 11:07:29;;;;;;;5.03;3.67;;;;;;;2.65;69.79;147982.66;5142142;27;20080;-65
2023/03/04 11:09:55;;;;;;;6.07;3.67;;;;;;;2.05;70.58;147836.19;5142888;27;20031;-65
2023/03/04 11:12:32;;;;;;;7.28;4.25;;;;;;;2.19;70.60;147870.53;5142701;27;20122;-65
2023/03/04 11:14:57;;;;;;;6.28;4.13;;;;;;;2.11;71.40;147850.19;5140001;27;20053;-66
2023/03/04 11:17:25;;;;;;;6.15;3.50;;;;;;;2.35;70.26;147908.75;5142595;27;20074;-64
2023/03/04 11:20:01;;;;;;;6.78;3.83;;;;;;;2.32;70.58;147902.38;5142582;27;20028;-65
2023/03/04 11:22:30;;;;;;;6.78;3.80;;;;;;;2.11;70.17;147848.88;5142625;27;20023;-65
2023/03/04 11:25:05;;;;;;;6.25;3.80;;;;;;;2.17;70.79;147864.19;5141626;27;20055;-65
2023/03/04 11:27:43;;;;;;;5.60;3.72;;;;;;;2.01;71.79;147824.69;5142800;27;20038;-65
2023/03/04 11:30:24;;;;;;;4.95;3.40;;;;;;;1.71;73.63;147750.81;5142415;27;20300;-64
2023/03/04 11:32:55;;;;;;;5.25;3.60;;;;;;;1.78;74.33;147767.38;5140499;27;20039;-64